Time;durP1;ratioP1;P1;durP2;ratioP2;P2;SDS_P1;SDS_P2;PMS_P1;PMS_P2;Temp;Humidity;BMP_temperature;BMP_pressure;BME280_temperature;BME280_humidity;BME280_pressure;Samples;Min_cycle;Max_cycle;Signal;HPM_P1;HPM_P2
2021/05/06 00:01:03;;;;;;;9.60;2.58;;;5.20;79.60;;;;;;5109310;27;20359;-74
2021/05/06 00:31:19;;;;;;;8.57;2.40;;;4.90;81.20;;;;;;5132566;27;20725;-75
2021/05/06 00:33:41;;;;;;;9.77;3.07;;;4.90;81.50;;;;;;5132913;27;20297;-75
2021/05/06 00:36:07;;;;;;;12.17;3.53;;;4.90;81.60;;;;;;5133727;27;20795;-75
2021/05/06 00:38:48;;;;;;;10.70;3.13;;;4.90;81.60;;;;;;5132529;27;20088;-75
2021/05/06 00:46:38;;;;;;;11.33;2.43;;;4.90;81.90;;;;;;5132599;27;20304;-74
2021/05/06 01:00:14;;;;;;;10.83;2.80;;;5.00;82.40;;;;;;5131953;27;20312;-75
2021/05/06 01:08:00;;;;;;;11.65;3.25;;;5.20;82.90;;;;;;5132676;27;20630;-74
2021/05/06 01:13:29;;;;;;;9.47;3.30;;;5.20;82.90;;;;;;5108234;27;20799;-76
2021/05/06 01:15:55;;;;;;;15.45;3.75;;;5.30;83.00;;;;;;5132624;27;20293;-76
2021/05/06 01:18:22;;;;;;;8.93;2.90;;;5.30;82.90;;;;;;5132379;27;20463;-76
2021/05/06 01:20:51;;;;;;;11.07;2.80;;;5.30;83.00;;;;;;5131674;27;20518;-76
2021/05/06 01:23:18;;;;;;;11.53;3.30;;;5.40;82.90;;;;;;5132652;27;20287;-76
2021/05/06 01:25:53;;;;;;;12.63;3.47;;;5.40;83.00;;;;;;5132548;27;20304;-75
2021/05/06 01:28:21;;;;;;;8.17;3.73;;;5.40;83.10;;;;;;5131747;27;20301;-76
2021/05/06 01:31:03;;;;;;;10.07;2.70;;;5.40;83.20;;;;;;5132592;27;20304;-77
2021/05/06 01:33:43;;;;;;;11.97;3.17;;;5.40;83.30;;;;;;5131811;27;20296;-75
2021/05/06 01:36:15;;;;;;;11.57;3.53;;;5.50;83.40;;;;;;5132815;27;20301;-74
2021/05/06 01:38:56;;;;;;;13.83;3.63;;;5.50;83.50;;;;;;5132481;27;20384;-74
2021/05/06 01:41:39;;;;;;;8.93;3.60;;;5.50;83.60;;;;;;5131731;27;20321;-73
2021/05/06 01:47:06;;;;;;;11.38;3.00;;;5.50;83.80;;;;;;5132308;27;20373;-72
2021/05/06 01:58:07;;;;;;;7.40;2.83;;;5.50;83.40;;;;;;5132286;28;20284;-75
2021/05/06 02:00:36;;;;;;;7.90;2.90;;;5.50;83.20;;;;;;5131907;27;20775;-74
2021/05/06 02:03:02;;;;;;;11.97;2.43;;;5.50;83.20;;;;;;5131418;27;20630;-74
2021/05/06 02:05:28;;;;;;;6.67;2.40;;;5.50;83.20;;;;;;5131989;28;20353;-74
2021/05/06 02:07:54;;;;;;;6.90;2.07;;;5.50;83.10;;;;;;5132229;27;20136;-74
2021/05/06 02:10:23;;;;;;;9.37;2.57;;;5.50;83.30;;;;;;5131221;27;20309;-74
2021/05/06 02:12:49;;;;;;;6.27;2.00;;;5.60;83.50;;;;;;5131923;27;20349;-74
2021/05/06 02:15:19;;;;;;;6.07;1.77;;;5.50;83.40;;;;;;5131742;28;20789;-74
2021/05/06 02:17:45;;;;;;;8.10;2.20;;;5.50;83.30;;;;;;5133216;27;20396;-73
2021/05/06 02:20:12;;;;;;;6.07;2.37;;;5.40;83.60;;;;;;5136039;27;20660;-74
2021/05/06 02:22:38;;;;;;;4.13;1.90;;;5.40;83.70;;;;;;5136008;27;20293;-74
2021/05/06 02:25:06;;;;;;;5.63;2.03;;;5.40;84.10;;;;;;5135263;27;20691;-74
2021/05/06 02:27:31;;;;;;;4.67;2.63;;;5.40;84.20;;;;;;5135600;27;20301;-74
2021/05/06 02:29:58;;;;;;;9.20;2.27;;;5.40;84.60;;;;;;5135114;27;20300;-75
2021/05/06 02:32:24;;;;;;;5.63;2.00;;;5.40;84.80;;;;;;5135904;27;20403;-74
2021/05/06 02:34:50;;;;;;;7.87;2.77;;;5.40;85.00;;;;;;5135406;27;20299;-73
2021/05/06 02:37:16;;;;;;;4.57;1.97;;;5.30;84.80;;;;;;5134738;27;20297;-74
2021/05/06 02:39:45;;;;;;;10.87;2.37;;;5.20;85.20;;;;;;5135292;27;20130;-73
2021/05/06 02:42:11;;;;;;;5.10;2.40;;;5.10;85.50;;;;;;5135750;27;20384;-73
2021/05/06 02:44:37;;;;;;;5.60;2.10;;;5.00;85.60;;;;;;5134868;27;20383;-72
2021/05/06 02:47:03;;;;;;;7.27;1.97;;;5.00;85.60;;;;;;5135330;27;20384;-74
2021/05/06 02:49:30;;;;;;;7.20;1.90;;;4.90;85.50;;;;;;5135258;27;20043;-74
2021/05/06 02:52:03;;;;;;;5.47;1.27;;;4.90;85.50;;;;;;5134392;27;20308;-73
2021/05/06 02:54:35;;;;;;;7.10;1.60;;;4.90;85.20;;;;;;5135047;27;20297;-72
2021/05/06 02:57:11;;;;;;;;;;;4.80;85.00;;;;;;5135814;27;20345;-74
2021/05/06 03:04:48;;;;;;;6.73;1.90;;;4.80;84.90;;;;;;5134770;27;20111;-73
2021/05/06 03:07:18;;;;;;;4.60;1.60;;;4.80;85.10;;;;;;5134407;27;20301;-73
2021/05/06 03:23:06;;;;;;;5.30;2.40;;;4.70;86.30;;;;;;5134719;27;20296;-73
2021/05/06 03:25:27;;;;;;;12.43;3.20;;;4.70;86.50;;;;;;5131560;27;20300;-73
2021/05/06 03:28:04;;;;;;;7.07;3.70;;;4.70;86.70;;;;;;5133462;27;20301;-74
2021/05/06 03:49:46;;;;;;;7.28;5.05;;;4.70;88.80;;;;;;5133409;27;20297;-73
2021/05/06 04:37:28;;;;;;;6.63;4.50;;;4.80;89.10;;;;;;5132456;27;20380;-74
2021/05/06 04:40:09;;;;;;;7.70;5.03;;;4.80;88.90;;;;;;5132490;27;20399;-73
2021/05/06 04:43:12;;;;;;;7.53;5.10;;;4.90;88.80;;;;;;5133289;27;20043;-73
2021/05/06 04:53:31;;;;;;;8.23;5.07;;;5.00;88.70;;;;;;5132725;27;20296;-73
2021/05/06 05:11:58;;;;;;;9.87;5.17;;;5.30;88.70;;;;;;5131814;27;20315;-74
2021/05/06 05:14:36;;;;;;;6.13;4.67;;;5.40;89.00;;;;;;5132640;27;20630;-74
2021/05/06 05:25:07;;;;;;;7.13;5.33;;;6.20;88.20;;;;;;5132968;27;20297;-74
2021/05/06 05:27:34;;;;;;;6.13;4.57;;;6.40;88.10;;;;;;5130488;27;20408;-73
2021/05/06 05:30:00;;;;;;;6.30;4.27;;;6.70;87.90;;;;;;5130461;27;20361;-73
2021/05/06 05:32:26;;;;;;;5.77;4.00;;;7.20;86.90;;;;;;5131887;27;20288;-74
2021/05/06 05:34:57;;;;;;;6.57;4.37;;;7.60;85.80;;;;;;5131274;27;20074;-74
2021/05/06 05:37:25;;;;;;;6.20;4.53;;;8.10;85.20;;;;;;5132318;28;20300;-74
2021/05/06 05:40:15;;;;;;;5.20;3.83;;;8.60;83.50;;;;;;5128827;28;20316;-74
2021/05/06 05:42:54;;;;;;;4.57;3.67;;;9.30;81.20;;;;;;5130913;27;20289;-75
2021/05/06 05:56:22;;;;;;;6.70;3.40;;;10.20;78.10;;;;;;5133800;27;20175;-74
2021/05/06 05:58:50;;;;;;;4.20;2.70;;;10.80;77.20;;;;;;5135882;27;20047;-74
2021/05/06 06:01:17;;;;;;;3.93;2.67;;;11.40;75.50;;;;;;5135043;27;20118;-74
2021/05/06 06:03:42;;;;;;;5.63;2.80;;;11.90;73.20;;;;;;5135917;27;20059;-74
2021/05/06 06:06:08;;;;;;;4.77;2.47;;;12.10;71.90;;;;;;5136141;27;20063;-74
2021/05/06 06:08:36;;;;;;;3.80;2.70;;;11.90;70.60;;;;;;5134543;27;20584;-73
2021/05/06 06:11:03;;;;;;;5.23;2.63;;;11.50;70.50;;;;;;5135589;27;20513;-74
2021/05/06 06:13:29;;;;;;;4.20;2.60;;;11.00;71.30;;;;;;5135482;27;20050;-73
2021/05/06 06:16:03;;;;;;;6.33;3.20;;;10.40;72.00;;;;;;5134797;27;20043;-73
2021/05/06 06:18:46;;;;;;;4.87;2.30;;;9.90;72.90;;;;;;5135579;27;20172;-73
2021/05/06 06:21:19;;;;;;;4.83;2.53;;;9.50;73.70;;;;;;5134967;27;20043;-73
2021/05/06 06:23:45;;;;;;;5.77;2.90;;;9.30;74.50;;;;;;5132671;27;20043;-73
2021/05/06 06:26:11;;;;;;;4.43;2.50;;;9.10;74.70;;;;;;5135787;27;20073;-73
2021/05/06 06:28:42;;;;;;;6.47;3.00;;;9.30;75.00;;;;;;5135067;27;20047;-74
2021/05/06 06:33:39;;;;;;;5.93;2.60;;;9.90;73.90;;;;;;5132885;27;20043;-75
2021/05/06 06:36:05;;;;;;;6.47;2.80;;;10.30;73.40;;;;;;5133956;27;20058;-74
2021/05/06 06:38:31;;;;;;;10.93;3.50;;;10.70;72.50;;;;;;5135363;27;20043;-76
2021/05/06 06:40:58;;;;;;;5.60;2.63;;;11.00;71.90;;;;;;5135453;27;20071;-76
2021/05/06 06:43:23;;;;;;;5.43;2.53;;;11.10;70.70;;;;;;5134635;27;20058;-77
2021/05/06 06:45:49;;;;;;;5.77;2.10;;;11.00;70.30;;;;;;5135112;27;20047;-75
2021/05/06 06:48:14;;;;;;;6.93;2.93;;;11.10;70.30;;;;;;5135462;27;20043;-75
2021/05/06 06:50:40;;;;;;;5.27;2.73;;;11.40;69.60;;;;;;5134547;27;20543;-75
2021/05/06 06:53:07;;;;;;;8.20;2.80;;;11.60;68.50;;;;;;5135285;27;20059;-75
2021/05/06 06:55:32;;;;;;;6.70;2.60;;;11.60;68.50;;;;;;5135243;27;20057;-74
2021/05/06 06:58:09;;;;;;;6.03;3.17;;;11.50;68.40;;;;;;5134408;27;20398;-75
2021/05/06 07:00:34;;;;;;;5.43;2.87;;;11.30;68.90;;;;;;5135108;27;20455;-74
2021/05/06 07:03:01;;;;;;;7.47;2.47;;;11.30;69.20;;;;;;5134154;27;20058;-75
2021/05/06 07:05:26;;;;;;;4.90;2.20;;;11.30;69.10;;;;;;5134213;27;20043;-74
2021/05/06 07:07:52;;;;;;;8.47;2.33;;;11.30;68.70;;;;;;5135247;27;20054;-77
2021/05/06 07:10:18;;;;;;;7.83;2.47;;;11.30;68.70;;;;;;5134836;27;20441;-75
2021/05/06 07:12:43;;;;;;;5.50;3.10;;;11.30;68.20;;;;;;5134376;27;20051;-75
2021/05/06 07:15:09;;;;;;;4.70;1.87;;;11.40;67.70;;;;;;5135310;27;20070;-73
2021/05/06 07:17:35;;;;;;;7.50;2.43;;;11.40;67.20;;;;;;5134901;27;20462;-75
2021/05/06 07:20:00;;;;;;;6.17;2.07;;;11.30;67.70;;;;;;5133723;27;20058;-75
2021/05/06 07:22:26;;;;;;;8.57;2.07;;;11.30;67.80;;;;;;5134608;27;20053;-74
2021/05/06 07:24:52;;;;;;;6.73;1.60;;;11.50;67.70;;;;;;5131554;27;20130;-75
2021/05/06 07:27:17;;;;;;;5.87;1.93;;;11.70;67.30;;;;;;5133560;27;20078;-75
2021/05/06 07:29:44;;;;;;;6.40;2.13;;;11.80;66.10;;;;;;5133752;27;20074;-75
2021/05/06 07:32:10;;;;;;;7.13;2.07;;;11.80;66.20;;;;;;5134069;27;20468;-75
2021/05/06 07:34:36;;;;;;;7.70;2.30;;;11.50;65.70;;;;;;5134066;27;20043;-75
2021/05/06 07:37:01;;;;;;;10.37;2.07;;;11.00;65.30;;;;;;5134163;27;20050;-74
2021/05/06 07:39:27;;;;;;;7.97;1.80;;;10.80;65.90;;;;;;5133516;27;20062;-75
2021/05/06 07:41:53;;;;;;;5.93;2.07;;;10.80;65.90;;;;;;5133825;27;20202;-74
2021/05/06 07:44:18;;;;;;;5.83;1.73;;;10.80;65.90;;;;;;5133763;27;20096;-75
2021/05/06 07:46:44;;;;;;;7.40;1.87;;;10.70;66.30;;;;;;5133264;27;20045;-74
2021/05/06 07:49:09;;;;;;;7.07;2.00;;;10.50;65.90;;;;;;5133810;27;20039;-74
2021/05/06 07:51:35;;;;;;;7.67;2.13;;;10.40;66.50;;;;;;5133478;27;20071;-75
2021/05/06 07:54:07;;;;;;;5.63;2.10;;;10.30;65.90;;;;;;5133025;27;20045;-75
2021/05/06 07:56:33;;;;;;;7.83;2.13;;;10.30;65.70;;;;;;5133357;27;20055;-73
2021/05/06 07:58:59;;;;;;;6.70;2.30;;;10.50;66.30;;;;;;5131022;27;20179;-75
2021/05/06 08:01:24;;;;;;;6.03;2.67;;;10.50;65.30;;;;;;5132899;27;20411;-75
2021/05/06 08:03:52;;;;;;;4.00;1.60;;;10.30;65.50;;;;;;5133295;27;20468;-75
2021/05/06 08:06:20;;;;;;;5.43;2.00;;;10.20;65.70;;;;;;5133487;27;20078;-75
2021/05/06 08:08:46;;;;;;;3.23;1.60;;;10.00;66.20;;;;;;5132342;27;20047;-74
2021/05/06 08:11:12;;;;;;;10.37;2.23;;;9.90;66.30;;;;;;5133340;27;20409;-75
2021/05/06 08:13:37;;;;;;;6.20;1.93;;;9.80;66.70;;;;;;5132983;27;20046;-74
2021/05/06 08:16:03;;;;;;;6.90;1.93;;;9.80;66.80;;;;;;5132530;27;20043;-76
2021/05/06 08:18:29;;;;;;;7.37;1.87;;;10.20;67.40;;;;;;5133210;27;20506;-78
2021/05/06 08:20:55;;;;;;;5.30;1.90;;;10.60;66.10;;;;;;5132922;27;20073;-77
2021/05/06 08:23:21;;;;;;;4.10;1.70;;;10.70;65.50;;;;;;5132482;27;20039;-76
2021/05/06 08:25:46;;;;;;;6.57;1.50;;;10.80;64.50;;;;;;5132753;27;20337;-76
2021/05/06 08:28:12;;;;;;;8.10;1.77;;;10.70;64.10;;;;;;5133106;27;20130;-75
2021/05/06 08:30:39;;;;;;;6.20;2.10;;;10.50;64.50;;;;;;5132725;27;20051;-76
2021/05/06 08:33:05;;;;;;;8.03;1.63;;;10.40;64.90;;;;;;5133350;27;20375;-77
2021/05/06 08:35:32;;;;;;;8.30;2.17;;;10.60;66.30;;;;;;5132332;27;20050;-79
2021/05/06 08:37:57;;;;;;;5.47;2.03;;;11.20;66.20;;;;;;5133137;27;20045;-79
2021/05/06 08:40:23;;;;;;;4.63;1.40;;;11.80;65.20;;;;;;5133016;27;20088;-75
2021/05/06 08:42:53;;;;;;;4.30;1.67;;;11.70;63.20;;;;;;5132438;27;20087;-76
2021/05/06 08:45:19;;;;;;;6.77;1.73;;;11.50;63.50;;;;;;5132671;27;20410;-75
2021/05/06 08:47:46;;;;;;;4.80;1.67;;;11.30;63.40;;;;;;5133036;27;20117;-75
2021/05/06 08:50:16;;;;;;;6.73;2.00;;;11.20;62.50;;;;;;5132214;27;20351;-75
2021/05/06 08:52:41;;;;;;;6.93;1.90;;;11.20;64.10;;;;;;5132590;27;20051;-75
2021/05/06 08:55:07;;;;;;;6.87;2.37;;;11.50;63.40;;;;;;5132936;27;20058;-81
2021/05/06 08:57:33;;;;;;;7.97;1.70;;;11.80;63.40;;;;;;5132008;27;20086;-74
2021/05/06 08:59:59;;;;;;;4.57;2.00;;;12.20;62.90;;;;;;5132828;27;20066;-80
2021/05/06 09:02:25;;;;;;;7.07;2.07;;;12.60;62.40;;;;;;5133144;27;20074;-85
2021/05/06 09:04:50;;;;;;;7.03;2.17;;;13.00;61.70;;;;;;5133816;27;20075;-82
2021/05/06 09:07:16;;;;;;;4.77;1.77;;;13.30;61.00;;;;;;5133417;27;20054;-81
2021/05/06 09:09:47;;;;;;;4.57;1.67;;;13.40;59.40;;;;;;5133765;27;20530;-87
2021/05/06 09:12:14;;;;;;;4.45;1.60;;;13.20;59.00;;;;;;5133103;27;20072;-83
2021/05/06 09:14:45;;;;;;;4.00;1.70;;;12.90;58.70;;;;;;5134956;27;20054;-87
2021/05/06 09:17:26;;;;;;;5.90;1.92;;;12.60;58.40;;;;;;5133814;27;20127;-81
2021/05/06 09:20:11;;;;;;;4.35;1.85;;;12.30;58.60;;;;;;5131521;27;20141;-80
2021/05/06 09:22:42;;;;;;;4.90;2.00;;;12.40;60.10;;;;;;5132617;27;20050;-82
2021/05/06 09:25:33;;;;;;;4.77;2.00;;;12.80;59.30;;;;;;5132203;27;20055;-81
2021/05/06 09:28:02;;;;;;;5.57;1.70;;;13.20;57.70;;;;;;5132941;27;20058;-81
2021/05/06 09:30:55;;;;;;;3.80;1.70;;;13.50;57.00;;;;;;5132322;27;20082;-80
2021/05/06 09:33:30;;;;;;;4.07;1.70;;;13.70;56.30;;;;;;5128541;27;20051;-81
2021/05/06 09:35:56;;;;;;;4.17;1.80;;;13.60;56.00;;;;;;5132485;27;20043;-81
2021/05/06 09:38:41;;;;;;;6.50;1.70;;;13.40;55.80;;;;;;5132702;27;20494;-78
2021/05/06 09:41:07;;;;;;;3.63;1.50;;;13.00;54.70;;;;;;5132075;27;20108;-76
2021/05/06 09:43:38;;;;;;;4.63;1.83;;;12.50;56.10;;;;;;5132441;27;20055;-75
2021/05/06 09:46:04;;;;;;;3.45;1.50;;;11.60;58.60;;;;;;5131698;27;20121;-79
2021/05/06 09:48:30;;;;;;;5.33;1.53;;;10.70;61.20;;;;;;5132274;27;20050;-77
2021/05/06 09:51:06;;;;;;;5.43;1.67;;;9.90;63.60;;;;;;5131914;28;20600;-73
2021/05/06 09:53:32;;;;;;;3.77;1.70;;;9.00;67.60;;;;;;5131015;27;20051;-73
2021/05/06 09:56:01;;;;;;;5.63;2.10;;;8.10;69.60;;;;;;5131935;27;20082;-75
2021/05/06 09:58:31;;;;;;;4.97;2.10;;;7.60;71.50;;;;;;5132049;28;20043;-69
2021/05/06 10:00:56;;;;;;;4.17;2.17;;;7.10;73.50;;;;;;5131464;27;20427;-71
2021/05/06 10:03:31;;;;;;;4.80;2.00;;;6.70;74.60;;;;;;5132046;27;20832;-70
2021/05/06 10:05:57;;;;;;;3.17;1.60;;;6.50;75.40;;;;;;5131998;27;20126;-70
2021/05/06 10:08:33;;;;;;;5.43;2.50;;;6.30;75.80;;;;;;5131327;27;20400;-71
2021/05/06 10:11:16;;;;;;;5.47;2.20;;;6.20;77.30;;;;;;5131871;27;20130;-74
2021/05/06 10:13:43;;;;;;;5.40;2.40;;;6.10;77.90;;;;;;5131845;27;20792;-72
2021/05/06 10:16:10;;;;;;;8.03;4.63;;;6.10;77.90;;;;;;5131464;27;20297;-71
2021/05/06 10:18:41;;;;;;;2.87;2.30;;;6.10;77.90;;;;;;5131873;27;20314;-73
2021/05/06 10:21:09;;;;;;;3.00;2.67;;;6.20;78.70;;;;;;5131200;27;20376;-71
2021/05/06 10:23:36;;;;;;;3.73;2.50;;;6.20;78.40;;;;;;5131659;27;20130;-71
2021/05/06 10:26:02;;;;;;;3.67;2.67;;;6.10;79.80;;;;;;5131927;27;20301;-70
2021/05/06 10:28:32;;;;;;;3.23;2.60;;;6.20;79.80;;;;;;5131078;27;20337;-72
2021/05/06 10:31:00;;;;;;;2.57;2.30;;;6.30;80.30;;;;;;5131549;27;20297;-74
2021/05/06 10:33:28;;;;;;;3.53;2.60;;;6.50;80.10;;;;;;5131732;27;20293;-71
2021/05/06 10:35:55;;;;;;;3.73;2.03;;;6.70;80.10;;;;;;5130829;27;20305;-72
2021/05/06 10:38:22;;;;;;;2.53;2.20;;;7.00;79.10;;;;;;5132892;27;20300;-74
2021/05/06 10:40:49;;;;;;;4.57;2.43;;;7.20;78.40;;;;;;5135393;27;20367;-73
2021/05/06 10:43:25;;;;;;;3.00;2.10;;;7.40;78.80;;;;;;5134692;27;20292;-74
2021/05/06 10:45:56;;;;;;;2.63;2.10;;;7.60;78.20;;;;;;5130290;27;20301;-68
2021/05/06 10:48:21;;;;;;;5.67;2.70;;;7.80;77.70;;;;;;5133661;27;20293;-71
2021/05/06 10:50:47;;;;;;;3.93;3.03;;;7.90;77.60;;;;;;5134016;27;20660;-69
2021/05/06 10:53:27;;;;;;;4.70;2.93;;;8.00;77.30;;;;;;5134665;27;20059;-67
2021/05/06 10:55:57;;;;;;;5.97;2.67;;;8.20;77.50;;;;;;5134871;27;20471;-67
2021/05/06 10:58:23;;;;;;;3.87;2.70;;;8.50;76.20;;;;;;5134151;27;20300;-69
2021/05/06 11:01:05;;;;;;;4.57;2.80;;;8.90;75.30;;;;;;5134799;27;20297;-67
2021/05/06 11:03:32;;;;;;;5.60;3.38;;;9.30;76.30;;;;;;5134198;27;20309;-69
2021/05/06 11:05:58;;;;;;;6.57;4.60;;;9.70;74.30;;;;;;5134661;27;20039;-70
2021/05/06 11:08:35;;;;;;;4.40;4.00;;;10.10;73.10;;;;;;5134301;27;20305;-69
2021/05/06 11:11:01;;;;;;;5.57;3.37;;;10.40;72.60;;;;;;5133617;27;20308;-70
2021/05/06 11:13:28;;;;;;;5.00;3.77;;;10.70;71.30;;;;;;5134205;27;20320;-69
2021/05/06 11:16:17;;;;;;;7.17;5.03;;;10.90;69.70;;;;;;5134390;27;20047;-70
2021/05/06 11:18:49;;;;;;;6.77;5.03;;;11.30;67.70;;;;;;5134018;27;20436;-70
2021/05/06 11:21:30;;;;;;;6.17;4.57;;;11.40;67.30;;;;;;5134470;27;20043;-70
2021/05/06 11:24:14;;;;;;;6.53;4.95;;;11.60;68.20;;;;;;5134599;27;20054;-70
2021/05/06 11:27:10;;;;;;;5.47;3.90;;;11.80;66.40;;;;;;5134319;27;20118;-72
2021/05/06 11:29:38;;;;;;;5.50;4.40;;;12.10;65.00;;;;;;5132714;27;20051;-70
2021/05/06 11:32:24;;;;;;;7.03;4.33;;;12.10;63.50;;;;;;5133008;27;20043;-71
2021/05/06 11:34:52;;;;;;;5.73;4.20;;;12.10;62.50;;;;;;5134405;27;20059;-71
2021/05/06 11:37:21;;;;;;;5.90;4.47;;;12.00;62.30;;;;;;5134391;27;20043;-69
2021/05/06 11:39:48;;;;;;;5.60;4.00;;;12.00;63.10;;;;;;5132724;27;20138;-71
2021/05/06 11:42:14;;;;;;;5.43;3.23;;;11.80;62.60;;;;;;5134187;27;20069;-71
2021/05/06 11:44:39;;;;;;;6.40;4.57;;;11.90;62.30;;;;;;5134489;27;20055;-72
2021/05/06 11:47:05;;;;;;;5.93;3.63;;;12.20;61.60;;;;;;5133363;27;20043;-72
2021/05/06 11:49:31;;;;;;;6.13;3.90;;;12.50;60.20;;;;;;5133814;27;20051;-69
2021/05/06 11:51:56;;;;;;;6.77;4.40;;;12.60;59.20;;;;;;5133638;27;20047;-68
2021/05/06 11:54:23;;;;;;;7.07;4.70;;;12.80;59.40;;;;;;5133523;27;20459;-68
2021/05/06 11:56:55;;;;;;;5.67;4.20;;;12.80;59.10;;;;;;5134068;27;20077;-70
2021/05/06 11:59:23;;;;;;;7.83;4.30;;;12.70;58.40;;;;;;5134128;27;20055;-71
2021/05/06 12:01:49;;;;;;;6.97;5.50;;;12.70;58.00;;;;;;5133279;27;20043;-73
2021/05/06 12:04:41;;;;;;;6.50;4.60;;;12.50;59.10;;;;;;5133540;27;20047;-72
2021/05/06 12:07:16;;;;;;;7.03;4.83;;;12.40;57.90;;;;;;5130361;27;20075;-71
2021/05/06 12:09:42;;;;;;;10.23;4.60;;;12.20;59.60;;;;;;5133585;27;20078;-70
2021/05/06 12:12:07;;;;;;;4.63;3.97;;;12.00;60.40;;;;;;5134110;27;20079;-71
2021/05/06 12:14:38;;;;;;;5.33;3.37;;;11.80;61.00;;;;;;5132657;27;20076;-69
2021/05/06 12:17:08;;;;;;;4.55;3.22;;;11.40;62.90;;;;;;5133200;27;20511;-68
2021/05/06 12:19:44;;;;;;;4.33;3.37;;;10.80;64.40;;;;;;5133273;27;20514;-69
2021/05/06 12:22:10;;;;;;;3.80;2.60;;;10.30;67.20;;;;;;5132644;27;20051;-69
2021/05/06 12:24:39;;;;;;;5.13;4.63;;;9.80;68.00;;;;;;5133331;27;20057;-70
2021/05/06 12:27:26;;;;;;;4.87;3.10;;;9.50;69.30;;;;;;5133105;27;20172;-71
2021/05/06 12:30:14;;;;;;;3.23;2.70;;;9.30;71.10;;;;;;5131581;27;20051;-68
2021/05/06 12:32:44;;;;;;;3.50;2.20;;;9.30;71.30;;;;;;5133356;27;20301;-68
2021/05/06 12:35:11;;;;;;;2.63;2.07;;;9.50;70.10;;;;;;5132705;27;20501;-68
2021/05/06 12:37:38;;;;;;;2.70;1.73;;;9.70;69.30;;;;;;5133203;27;20048;-69
2021/05/06 12:40:14;;;;;;;5.47;2.53;;;9.90;68.10;;;;;;5133018;27;20047;-69
2021/05/06 12:42:39;;;;;;;5.60;2.97;;;10.30;66.90;;;;;;5131517;27;20042;-69
2021/05/06 12:45:24;;;;;;;5.60;3.77;;;10.80;66.20;;;;;;5132264;27;20054;-68
2021/05/06 12:47:50;;;;;;;3.67;2.67;;;11.20;63.10;;;;;;5132605;27;20537;-67
2021/05/06 12:50:26;;;;;;;3.03;2.23;;;11.40;63.40;;;;;;5131702;27;20392;-68
2021/05/06 12:53:08;;;;;;;3.13;2.57;;;11.70;62.10;;;;;;5132320;27;20074;-70
2021/05/06 12:55:39;;;;;;;3.28;2.40;;;12.00;60.90;;;;;;5132483;27;20483;-69
2021/05/06 12:58:17;;;;;;;3.72;2.60;;;12.20;60.00;;;;;;5132633;27;20039;-69
2021/05/06 13:00:52;;;;;;;3.43;3.00;;;12.30;59.00;;;;;;5131245;27;20501;-70
2021/05/06 13:03:26;;;;;;;4.50;3.40;;;12.40;59.40;;;;;;5132111;27;20051;-73
2021/05/06 13:05:51;;;;;;;4.33;3.23;;;12.30;59.40;;;;;;5132509;27;20039;-71
2021/05/06 13:08:17;;;;;;;3.90;2.70;;;12.40;58.60;;;;;;5132180;27;20088;-72
2021/05/06 13:10:45;;;;;;;5.37;2.10;;;12.40;59.00;;;;;;5131916;27;20047;-71
2021/05/06 13:13:32;;;;;;;4.70;2.13;;;12.00;60.00;;;;;;5132806;27;20436;-73
2021/05/06 13:15:57;;;;;;;6.87;2.60;;;11.40;61.90;;;;;;5132497;27;20129;-72
2021/05/06 13:18:23;;;;;;;4.33;2.50;;;10.90;64.10;;;;;;5131763;27;20126;-72
2021/05/06 13:20:51;;;;;;;4.80;2.67;;;10.50;65.80;;;;;;5132503;27;20054;-72
2021/05/06 13:23:31;;;;;;;4.73;2.23;;;10.20;67.30;;;;;;5132430;27;20039;-72
2021/05/06 13:26:04;;;;;;;4.13;1.83;;;10.10;67.80;;;;;;5131818;27;20043;-71
2021/05/06 13:28:33;;;;;;;5.67;2.27;;;9.90;67.60;;;;;;5132490;27;20108;-71
2021/05/06 13:31:23;;;;;;;3.53;2.10;;;9.60;68.20;;;;;;5131696;27;20312;-69
2021/05/06 13:34:07;;;;;;;4.43;2.23;;;9.30;69.30;;;;;;5132486;27;20335;-73
2021/05/06 13:36:33;;;;;;;3.40;1.90;;;9.10;70.20;;;;;;5132273;27;20357;-71
2021/05/06 13:39:01;;;;;;;3.03;1.67;;;9.00;70.80;;;;;;5131209;27;20300;-70
2021/05/06 13:41:32;;;;;;;4.03;1.93;;;9.00;70.20;;;;;;5132186;27;20043;-71
2021/05/06 13:44:00;;;;;;;3.85;2.40;;;9.00;70.50;;;;;;5132384;27;20322;-71
2021/05/06 13:46:27;;;;;;;4.50;2.27;;;8.90;70.30;;;;;;5131110;27;20488;-71
2021/05/06 13:48:54;;;;;;;4.20;2.40;;;8.80;70.90;;;;;;5132227;27;20296;-70
2021/05/06 13:51:22;;;;;;;2.30;1.63;;;8.80;71.70;;;;;;5131986;27;20323;-70
2021/05/06 13:53:49;;;;;;;1.80;1.60;;;8.80;70.90;;;;;;5131107;27;20361;-70
2021/05/06 13:56:14;;;;;;;3.20;1.67;;;8.80;71.10;;;;;;5132127;27;20304;-70
2021/05/06 13:58:41;;;;;;;2.90;1.90;;;8.60;71.40;;;;;;5132127;27;20308;-70
2021/05/06 14:01:09;;;;;;;3.20;1.80;;;8.60;71.70;;;;;;5131337;27;20334;-70
2021/05/06 14:03:35;;;;;;;2.57;1.93;;;8.40;72.00;;;;;;5131682;27;20796;-70
2021/05/06 14:06:01;;;;;;;4.27;2.60;;;8.30;72.60;;;;;;5131298;27;20789;-70
2021/05/06 14:08:27;;;;;;;5.63;2.80;;;8.20;73.70;;;;;;5131806;27;20373;-70
2021/05/06 14:10:54;;;;;;;4.97;2.60;;;8.10;75.60;;;;;;5131870;27;20344;-69
2021/05/06 14:13:20;;;;;;;4.67;3.60;;;8.00;76.10;;;;;;5134107;27;20494;-70
2021/05/06 14:15:46;;;;;;;4.43;2.87;;;7.90;75.70;;;;;;5135090;27;20301;-70
2021/05/06 14:18:12;;;;;;;3.47;2.90;;;7.90;75.50;;;;;;5136226;27;20066;-70
2021/05/06 14:20:38;;;;;;;4.47;3.13;;;7.90;76.10;;;;;;5135293;27;20772;-70
2021/05/06 14:23:05;;;;;;;4.40;3.20;;;8.00;77.10;;;;;;5135731;27;20122;-70
2021/05/06 14:25:32;;;;;;;4.47;4.07;;;8.00;77.70;;;;;;5135555;27;20308;-69
2021/05/06 14:27:58;;;;;;;5.73;3.40;;;8.10;77.70;;;;;;5134604;27;20725;-70
2021/05/06 14:30:24;;;;;;;5.97;3.20;;;8.20;77.30;;;;;;5135601;27;20323;-69
2021/05/06 14:32:50;;;;;;;3.87;3.07;;;8.20;76.90;;;;;;5135755;27;20047;-69
2021/05/06 14:35:15;;;;;;;4.67;3.27;;;8.30;76.40;;;;;;5134571;27;20361;-70
2021/05/06 14:37:42;;;;;;;5.07;3.43;;;8.40;77.40;;;;;;5135633;27;20043;-70
2021/05/06 14:40:08;;;;;;;3.97;2.90;;;8.40;76.90;;;;;;5135856;27;20301;-70
2021/05/06 14:42:34;;;;;;;4.40;3.30;;;8.40;76.60;;;;;;5134779;27;20043;-70
2021/05/06 14:45:00;;;;;;;4.67;3.10;;;8.40;76.90;;;;;;5135224;27;20423;-69
2021/05/06 14:47:27;;;;;;;5.03;3.57;;;8.40;77.30;;;;;;5135050;27;20702;-69
2021/05/06 14:49:53;;;;;;;5.27;3.60;;;8.50;77.00;;;;;;5134500;27;20320;-69
2021/05/06 14:52:19;;;;;;;4.40;3.37;;;8.50;77.20;;;;;;5134700;27;20777;-69
2021/05/06 14:54:46;;;;;;;4.03;3.10;;;8.50;76.60;;;;;;5134921;27;20088;-69
2021/05/06 14:57:12;;;;;;;7.37;3.73;;;8.50;76.60;;;;;;5134587;27;20047;-69
2021/05/06 14:59:37;;;;;;;4.77;3.50;;;8.50;76.90;;;;;;5135027;27;20289;-70
2021/05/06 15:02:03;;;;;;;4.67;3.23;;;8.60;76.50;;;;;;5135234;27;20349;-70
2021/05/06 15:04:29;;;;;;;4.67;3.37;;;8.70;76.30;;;;;;5134280;27;20175;-70
2021/05/06 15:06:55;;;;;;;4.97;3.50;;;8.80;76.60;;;;;;5134919;27;20075;-69
2021/05/06 15:09:22;;;;;;;4.43;3.70;;;8.90;76.30;;;;;;5133984;27;20138;-69
2021/05/06 15:11:48;;;;;;;4.93;3.87;;;9.00;75.70;;;;;;5134732;27;20051;-68
2021/05/06 15:14:14;;;;;;;4.77;3.60;;;9.10;75.30;;;;;;5134482;27;20380;-68
2021/05/06 15:16:40;;;;;;;4.60;3.60;;;9.10;74.80;;;;;;5134301;27;20292;-68
2021/05/06 15:19:05;;;;;;;5.70;3.30;;;9.10;74.50;;;;;;5134995;27;20315;-68
2021/05/06 15:21:31;;;;;;;4.47;3.90;;;9.00;74.90;;;;;;5134370;27;20047;-68
2021/05/06 15:23:57;;;;;;;4.97;3.60;;;9.00;75.10;;;;;;5133260;27;20043;-68
2021/05/06 15:26:22;;;;;;;6.10;3.70;;;8.90;75.30;;;;;;5134259;27;20043;-68
2021/05/06 15:28:48;;;;;;;5.27;3.30;;;8.90;75.30;;;;;;5134139;27;20043;-67
2021/05/06 15:31:14;;;;;;;5.23;3.77;;;8.80;75.30;;;;;;5133736;27;20475;-69
2021/05/06 15:33:40;;;;;;;5.67;3.73;;;8.70;75.40;;;;;;5134735;27;20051;-68
2021/05/06 15:36:05;;;;;;;4.40;3.93;;;8.70;75.70;;;;;;5134249;27;20134;-69
2021/05/06 15:38:32;;;;;;;5.27;4.37;;;8.60;75.70;;;;;;5133717;27;20123;-68
2021/05/06 15:40:57;;;;;;;4.93;4.00;;;8.50;76.40;;;;;;5134041;27;20785;-68
2021/05/06 15:43:23;;;;;;;4.43;4.03;;;8.60;76.70;;;;;;5133945;27;20043;-68
2021/05/06 15:45:48;;;;;;;6.07;3.80;;;8.50;76.40;;;;;;5133292;27;20491;-67
2021/05/06 15:48:15;;;;;;;5.20;3.87;;;8.50;76.60;;;;;;5133995;27;20051;-68
2021/05/06 15:50:43;;;;;;;4.80;4.10;;;8.50;76.70;;;;;;5134034;27;20043;-68
2021/05/06 15:53:09;;;;;;;6.40;5.10;;;8.40;76.00;;;;;;5133160;27;20308;-68
2021/05/06 15:55:36;;;;;;;7.97;4.50;;;8.40;76.90;;;;;;5134050;27;20638;-69
2021/05/06 15:58:04;;;;;;;6.23;4.67;;;8.30;77.20;;;;;;5133992;27;20325;-68
2021/05/06 16:00:31;;;;;;;5.13;4.10;;;8.20;77.10;;;;;;5133098;27;20297;-68
2021/05/06 16:03:00;;;;;;;4.90;4.17;;;8.10;76.80;;;;;;5133895;27;20345;-68
2021/05/06 16:05:28;;;;;;;6.43;5.20;;;8.00;77.40;;;;;;5133659;27;20305;-68
2021/05/06 16:07:55;;;;;;;4.10;3.47;;;8.00;78.20;;;;;;5132855;27;20335;-70
2021/05/06 16:10:23;;;;;;;6.50;4.27;;;8.00;78.10;;;;;;5133445;27;20437;-68
2021/05/06 16:12:49;;;;;;;5.70;4.33;;;7.90;78.20;;;;;;5132800;27;20300;-70
2021/05/06 16:15:15;;;;;;;5.13;4.10;;;8.00;78.90;;;;;;5133433;27;20353;-71